sensor_id;sensor_type;location;lat;lon;timestamp;P1;durP1;ratioP1;P2;durP2;ratioP2
5054;SDS011;13829;48.990;8.346;2023-04-06T00:00:48;6.30;;;5.27;;
5054;SDS011;13829;48.990;8.346;2023-04-06T00:03:17;6.33;;;5.67;;
5054;SDS011;13829;48.990;8.346;2023-04-06T00:05:46;9.57;;;6.83;;
5054;SDS011;13829;48.990;8.346;2023-04-06T00:08:16;8.67;;;6.50;;
5054;SDS011;13829;48.990;8.346;2023-04-06T00:10:43;8.43;;;5.90;;
5054;SDS011;13829;48.990;8.346;2023-04-06T00:13:10;8.90;;;5.77;;
5054;SDS011;13829;48.990;8.346;2023-04-06T00:15:37;8.40;;;6.27;;
5054;SDS011;13829;48.990;8.346;2023-04-06T00:18:05;9.67;;;6.53;;
5054;SDS011;13829;48.990;8.346;2023-04-06T00:20:32;9.20;;;6.70;;
5054;SDS011;13829;48.990;8.346;2023-04-06T00:22:59;9.37;;;6.70;;
5054;SDS011;13829;48.990;8.346;2023-04-06T00:25:27;10.83;;;7.47;;
5054;SDS011;13829;48.990;8.346;2023-04-06T00:27:55;9.17;;;6.47;;
5054;SDS011;13829;48.990;8.346;2023-04-06T00:30:22;8.43;;;7.13;;
5054;SDS011;13829;48.990;8.346;2023-04-06T00:32:49;8.23;;;6.27;;
5054;SDS011;13829;48.990;8.346;2023-04-06T00:35:16;9.00;;;7.30;;
5054;SDS011;13829;48.990;8.346;2023-04-06T00:37:45;8.33;;;6.63;;
5054;SDS011;13829;48.990;8.346;2023-04-06T00:40:13;7.87;;;6.47;;
5054;SDS011;13829;48.990;8.346;2023-04-06T00:42:42;6.93;;;5.97;;
5054;SDS011;13829;48.990;8.346;2023-04-06T00:45:10;8.43;;;6.33;;
5054;SDS011;13829;48.990;8.346;2023-04-06T00:47:37;10.37;;;6.40;;
5054;SDS011;13829;48.990;8.346;2023-04-06T00:50:05;7.67;;;5.60;;
5054;SDS011;13829;48.990;8.346;2023-04-06T00:52:33;6.50;;;4.90;;
5054;SDS011;13829;48.990;8.346;2023-04-06T00:55:01;6.40;;;4.73;;
5054;SDS011;13829;48.990;8.346;2023-04-06T00:57:28;6.63;;;4.70;;
5054;SDS011;13829;48.990;8.346;2023-04-06T00:59:57;5.10;;;4.40;;
5054;SDS011;13829;48.990;8.346;2023-04-06T01:02:24;4.73;;;4.23;;
5054;SDS011;13829;48.990;8.346;2023-04-06T01:04:54;6.83;;;4.60;;
5054;SDS011;13829;48.990;8.346;2023-04-06T01:07:22;6.37;;;5.10;;
5054;SDS011;13829;48.990;8.346;2023-04-06T01:09:50;4.37;;;3.90;;
5054;SDS011;13829;48.990;8.346;2023-04-06T01:12:19;10.23;;;5.70;;
5054;SDS011;13829;48.990;8.346;2023-04-06T01:14:46;7.60;;;5.03;;
5054;SDS011;13829;48.990;8.346;2023-04-06T01:17:15;6.40;;;4.20;;
5054;SDS011;13829;48.990;8.346;2023-04-06T01:19:43;6.80;;;4.50;;
5054;SDS011;13829;48.990;8.346;2023-04-06T01:22:14;6.43;;;4.73;;
5054;SDS011;13829;48.990;8.346;2023-04-06T01:24:42;5.93;;;4.50;;
5054;SDS011;13829;48.990;8.346;2023-04-06T01:27:10;6.80;;;4.63;;
5054;SDS011;13829;48.990;8.346;2023-04-06T01:29:38;5.90;;;4.43;;
5054;SDS011;13829;48.990;8.346;2023-04-06T01:32:06;5.40;;;4.40;;
5054;SDS011;13829;48.990;8.346;2023-04-06T01:34:34;7.40;;;4.50;;
5054;SDS011;13829;48.990;8.346;2023-04-06T01:37:01;5.07;;;4.50;;
5054;SDS011;13829;48.990;8.346;2023-04-06T01:39:30;5.73;;;4.30;;
5054;SDS011;13829;48.990;8.346;2023-04-06T01:41:57;5.33;;;4.30;;
5054;SDS011;13829;48.990;8.346;2023-04-06T01:44:24;4.87;;;4.20;;
5054;SDS011;13829;48.990;8.346;2023-04-06T01:46:55;5.33;;;4.13;;
5054;SDS011;13829;48.990;8.346;2023-04-06T01:49:22;4.47;;;4.00;;
5054;SDS011;13829;48.990;8.346;2023-04-06T01:51:49;6.67;;;4.30;;
5054;SDS011;13829;48.990;8.346;2023-04-06T01:54:17;5.43;;;4.00;;
5054;SDS011;13829;48.990;8.346;2023-04-06T01:56:45;4.97;;;3.83;;
5054;SDS011;13829;48.990;8.346;2023-04-06T01:59:15;5.30;;;4.37;;
5054;SDS011;13829;48.990;8.346;2023-04-06T02:01:42;6.03;;;4.43;;
5054;SDS011;13829;48.990;8.346;2023-04-06T02:04:10;4.50;;;4.10;;
5054;SDS011;13829;48.990;8.346;2023-04-06T02:06:38;6.93;;;4.40;;
5054;SDS011;13829;48.990;8.346;2023-04-06T02:09:05;6.13;;;4.17;;
5054;SDS011;13829;48.990;8.346;2023-04-06T02:11:32;5.33;;;4.27;;
5054;SDS011;13829;48.990;8.346;2023-04-06T02:14:01;4.80;;;4.07;;
5054;SDS011;13829;48.990;8.346;2023-04-06T02:16:28;4.87;;;4.37;;
5054;SDS011;13829;48.990;8.346;2023-04-06T02:18:56;6.43;;;4.50;;
5054;SDS011;13829;48.990;8.346;2023-04-06T02:21:23;5.67;;;4.77;;
5054;SDS011;13829;48.990;8.346;2023-04-06T02:23:50;4.97;;;4.10;;
5054;SDS011;13829;48.990;8.346;2023-04-06T02:26:17;7.10;;;3.77;;
5054;SDS011;13829;48.990;8.346;2023-04-06T02:28:45;5.00;;;3.97;;
5054;SDS011;13829;48.990;8.346;2023-04-06T02:31:13;4.90;;;3.90;;
5054;SDS011;13829;48.990;8.346;2023-04-06T02:33:41;4.57;;;4.00;;
5054;SDS011;13829;48.990;8.346;2023-04-06T02:36:08;3.90;;;3.50;;
5054;SDS011;13829;48.990;8.346;2023-04-06T02:38:35;5.90;;;3.77;;
5054;SDS011;13829;48.990;8.346;2023-04-06T02:41:02;7.93;;;3.80;;
5054;SDS011;13829;48.990;8.346;2023-04-06T02:43:29;4.93;;;3.93;;
5054;SDS011;13829;48.990;8.346;2023-04-06T02:45:56;5.53;;;4.17;;
5054;SDS011;13829;48.990;8.346;2023-04-06T02:48:25;4.87;;;3.97;;
5054;SDS011;13829;48.990;8.346;2023-04-06T02:50:52;4.80;;;4.23;;
5054;SDS011;13829;48.990;8.346;2023-04-06T02:53:19;5.23;;;3.90;;
5054;SDS011;13829;48.990;8.346;2023-04-06T02:55:46;5.50;;;4.10;;
5054;SDS011;13829;48.990;8.346;2023-04-06T02:58:13;5.17;;;4.10;;
5054;SDS011;13829;48.990;8.346;2023-04-06T03:00:40;5.60;;;4.10;;
5054;SDS011;13829;48.990;8.346;2023-04-06T03:03:08;4.23;;;3.63;;
5054;SDS011;13829;48.990;8.346;2023-04-06T03:05:36;4.70;;;3.87;;
5054;SDS011;13829;48.990;8.346;2023-04-06T03:08:04;5.13;;;3.57;;
5054;SDS011;13829;48.990;8.346;2023-04-06T03:10:31;5.17;;;4.07;;
5054;SDS011;13829;48.990;8.346;2023-04-06T03:12:58;6.03;;;4.43;;
5054;SDS011;13829;48.990;8.346;2023-04-06T03:15:25;7.03;;;4.30;;
5054;SDS011;13829;48.990;8.346;2023-04-06T03:17:52;5.77;;;3.87;;
5054;SDS011;13829;48.990;8.346;2023-04-06T03:20:19;4.20;;;3.80;;
5054;SDS011;13829;48.990;8.346;2023-04-06T03:22:47;4.30;;;3.40;;
5054;SDS011;13829;48.990;8.346;2023-04-06T03:25:14;4.60;;;3.70;;
5054;SDS011;13829;48.990;8.346;2023-04-06T03:27:41;4.80;;;4.10;;
5054;SDS011;13829;48.990;8.346;2023-04-06T03:30:09;4.90;;;3.77;;
5054;SDS011;13829;48.990;8.346;2023-04-06T03:32:37;4.37;;;3.57;;
5054;SDS011;13829;48.990;8.346;2023-04-06T03:35:04;5.07;;;3.67;;
5054;SDS011;13829;48.990;8.346;2023-04-06T03:37:32;4.73;;;3.90;;
5054;SDS011;13829;48.990;8.346;2023-04-06T03:40:00;5.63;;;3.80;;
5054;SDS011;13829;48.990;8.346;2023-04-06T03:42:28;5.53;;;4.43;;
5054;SDS011;13829;48.990;8.346;2023-04-06T03:44:55;4.87;;;3.53;;
5054;SDS011;13829;48.990;8.346;2023-04-06T03:47:23;6.30;;;4.03;;
5054;SDS011;13829;48.990;8.346;2023-04-06T03:49:50;4.87;;;3.87;;
5054;SDS011;13829;48.990;8.346;2023-04-06T03:52:17;8.17;;;4.27;;
5054;SDS011;13829;48.990;8.346;2023-04-06T03:54:44;4.50;;;3.73;;
5054;SDS011;13829;48.990;8.346;2023-04-06T03:57:13;4.40;;;4.00;;
5054;SDS011;13829;48.990;8.346;2023-04-06T03:59:40;5.93;;;4.00;;
5054;SDS011;13829;48.990;8.346;2023-04-06T04:02:07;7.20;;;3.77;;
5054;SDS011;13829;48.990;8.346;2023-04-06T04:04:34;4.00;;;3.60;;
5054;SDS011;13829;48.990;8.346;2023-04-06T04:07:02;6.97;;;3.80;;
5054;SDS011;13829;48.990;8.346;2023-04-06T04:09:29;5.70;;;4.00;;
5054;SDS011;13829;48.990;8.346;2023-04-06T04:11:56;7.33;;;5.00;;
5054;SDS011;13829;48.990;8.346;2023-04-06T04:14:24;6.83;;;4.50;;
5054;SDS011;13829;48.990;8.346;2023-04-06T04:16:51;4.90;;;3.57;;
5054;SDS011;13829;48.990;8.346;2023-04-06T04:19:19;4.50;;;3.63;;
5054;SDS011;13829;48.990;8.346;2023-04-06T04:21:46;6.20;;;4.67;;
5054;SDS011;13829;48.990;8.346;2023-04-06T04:24:13;4.40;;;3.80;;
5054;SDS011;13829;48.990;8.346;2023-04-06T04:26:40;4.97;;;3.93;;
5054;SDS011;13829;48.990;8.346;2023-04-06T04:29:07;5.13;;;3.40;;
5054;SDS011;13829;48.990;8.346;2023-04-06T04:31:36;4.67;;;3.33;;
5054;SDS011;13829;48.990;8.346;2023-04-06T04:34:05;6.53;;;3.70;;
5054;SDS011;13829;48.990;8.346;2023-04-06T04:36:32;4.53;;;3.87;;
5054;SDS011;13829;48.990;8.346;2023-04-06T04:39:00;7.47;;;4.30;;
5054;SDS011;13829;48.990;8.346;2023-04-06T04:41:27;4.70;;;3.43;;
5054;SDS011;13829;48.990;8.346;2023-04-06T04:43:55;3.93;;;3.43;;
5054;SDS011;13829;48.990;8.346;2023-04-06T04:46:22;5.00;;;3.57;;
5054;SDS011;13829;48.990;8.346;2023-04-06T04:48:50;3.87;;;3.43;;
5054;SDS011;13829;48.990;8.346;2023-04-06T04:51:17;4.27;;;3.60;;
5054;SDS011;13829;48.990;8.346;2023-04-06T04:53:45;4.57;;;3.60;;
5054;SDS011;13829;48.990;8.346;2023-04-06T04:56:12;6.80;;;4.00;;
5054;SDS011;13829;48.990;8.346;2023-04-06T04:58:39;5.00;;;4.20;;
5054;SDS011;13829;48.990;8.346;2023-04-06T05:01:07;5.70;;;4.40;;
5054;SDS011;13829;48.990;8.346;2023-04-06T05:03:34;4.30;;;3.90;;
5054;SDS011;13829;48.990;8.346;2023-04-06T05:06:05;6.70;;;4.07;;
5054;SDS011;13829;48.990;8.346;2023-04-06T05:08:32;5.80;;;4.30;;
5054;SDS011;13829;48.990;8.346;2023-04-06T05:10:59;4.73;;;3.20;;
5054;SDS011;13829;48.990;8.346;2023-04-06T05:13:27;4.40;;;3.93;;
5054;SDS011;13829;48.990;8.346;2023-04-06T05:15:55;4.10;;;3.70;;
5054;SDS011;13829;48.990;8.346;2023-04-06T05:18:22;4.00;;;3.50;;
5054;SDS011;13829;48.990;8.346;2023-04-06T05:20:50;6.03;;;4.07;;
5054;SDS011;13829;48.990;8.346;2023-04-06T05:23:18;5.47;;;4.20;;
5054;SDS011;13829;48.990;8.346;2023-04-06T05:25:45;6.63;;;4.47;;
5054;SDS011;13829;48.990;8.346;2023-04-06T05:28:13;5.23;;;4.30;;
5054;SDS011;13829;48.990;8.346;2023-04-06T05:30:41;5.10;;;4.33;;
5054;SDS011;13829;48.990;8.346;2023-04-06T05:33:09;4.60;;;3.93;;
5054;SDS011;13829;48.990;8.346;2023-04-06T05:35:36;5.53;;;4.23;;
5054;SDS011;13829;48.990;8.346;2023-04-06T05:38:05;5.50;;;4.03;;
5054;SDS011;13829;48.990;8.346;2023-04-06T05:40:35;6.67;;;4.43;;
5054;SDS011;13829;48.990;8.346;2023-04-06T05:43:03;6.37;;;4.43;;
5054;SDS011;13829;48.990;8.346;2023-04-06T05:45:30;4.23;;;3.80;;
5054;SDS011;13829;48.990;8.346;2023-04-06T05:47:57;4.97;;;4.40;;
5054;SDS011;13829;48.990;8.346;2023-04-06T05:50:24;5.93;;;4.40;;
5054;SDS011;13829;48.990;8.346;2023-04-06T05:52:51;5.23;;;4.23;;
5054;SDS011;13829;48.990;8.346;2023-04-06T05:55:18;5.37;;;4.30;;
5054;SDS011;13829;48.990;8.346;2023-04-06T05:57:47;5.70;;;4.50;;
5054;SDS011;13829;48.990;8.346;2023-04-06T06:00:14;5.30;;;4.80;;
5054;SDS011;13829;48.990;8.346;2023-04-06T06:02:42;6.17;;;4.77;;
5054;SDS011;13829;48.990;8.346;2023-04-06T06:05:09;4.97;;;4.30;;
5054;SDS011;13829;48.990;8.346;2023-04-06T06:07:36;6.83;;;4.97;;
5054;SDS011;13829;48.990;8.346;2023-04-06T06:10:04;5.83;;;4.50;;
5054;SDS011;13829;48.990;8.346;2023-04-06T06:12:32;6.20;;;4.80;;
5054;SDS011;13829;48.990;8.346;2023-04-06T06:15:01;5.87;;;4.80;;
5054;SDS011;13829;48.990;8.346;2023-04-06T06:17:29;7.87;;;4.93;;
5054;SDS011;13829;48.990;8.346;2023-04-06T06:19:56;5.20;;;4.40;;
5054;SDS011;13829;48.990;8.346;2023-04-06T06:22:23;6.00;;;5.40;;
5054;SDS011;13829;48.990;8.346;2023-04-06T06:24:50;6.00;;;5.40;;
5054;SDS011;13829;48.990;8.346;2023-04-06T06:27:17;8.17;;;5.27;;
5054;SDS011;13829;48.990;8.346;2023-04-06T06:29:44;7.30;;;5.60;;
5054;SDS011;13829;48.990;8.346;2023-04-06T06:32:13;5.60;;;5.10;;
5054;SDS011;13829;48.990;8.346;2023-04-06T06:34:40;10.57;;;5.67;;
5054;SDS011;13829;48.990;8.346;2023-04-06T06:37:08;6.10;;;5.13;;
5054;SDS011;13829;48.990;8.346;2023-04-06T06:39:35;6.87;;;5.60;;
5054;SDS011;13829;48.990;8.346;2023-04-06T06:42:02;9.93;;;5.57;;
5054;SDS011;13829;48.990;8.346;2023-04-06T06:44:29;6.63;;;5.40;;
5054;SDS011;13829;48.990;8.346;2023-04-06T06:46:59;7.93;;;6.20;;
5054;SDS011;13829;48.990;8.346;2023-04-06T06:49:27;7.60;;;6.63;;
5054;SDS011;13829;48.990;8.346;2023-04-06T06:51:54;7.67;;;6.07;;
5054;SDS011;13829;48.990;8.346;2023-04-06T06:54:21;7.90;;;5.80;;
5054;SDS011;13829;48.990;8.346;2023-04-06T06:56:48;6.93;;;6.13;;
5054;SDS011;13829;48.990;8.346;2023-04-06T06:59:15;8.87;;;6.13;;
5054;SDS011;13829;48.990;8.346;2023-04-06T07:01:43;8.17;;;6.87;;
5054;SDS011;13829;48.990;8.346;2023-04-06T07:04:10;9.00;;;6.80;;
5054;SDS011;13829;48.990;8.346;2023-04-06T07:06:38;7.77;;;6.83;;
5054;SDS011;13829;48.990;8.346;2023-04-06T07:09:05;10.87;;;6.37;;
5054;SDS011;13829;48.990;8.346;2023-04-06T07:11:33;7.97;;;6.30;;
5054;SDS011;13829;48.990;8.346;2023-04-06T07:14:00;8.57;;;5.87;;
5054;SDS011;13829;48.990;8.346;2023-04-06T07:16:27;6.83;;;6.13;;
5054;SDS011;13829;48.990;8.346;2023-04-06T07:18:56;7.80;;;6.27;;
5054;SDS011;13829;48.990;8.346;2023-04-06T07:21:23;7.87;;;5.67;;
5054;SDS011;13829;48.990;8.346;2023-04-06T07:23:51;10.77;;;6.07;;
5054;SDS011;13829;48.990;8.346;2023-04-06T07:26:18;10.50;;;6.83;;
5054;SDS011;13829;48.990;8.346;2023-04-06T07:28:46;6.80;;;6.10;;
5054;SDS011;13829;48.990;8.346;2023-04-06T07:31:13;8.95;;;6.40;;
5054;SDS011;13829;48.990;8.346;2023-04-06T07:33:40;7.15;;;6.45;;
5054;SDS011;13829;48.990;8.346;2023-04-06T07:36:07;7.57;;;6.88;;
5054;SDS011;13829;48.990;8.346;2023-04-06T07:38:34;10.45;;;6.32;;
5054;SDS011;13829;48.990;8.346;2023-04-06T07:41:03;10.68;;;7.32;;
5054;SDS011;13829;48.990;8.346;2023-04-06T07:43:30;8.13;;;7.32;;
5054;SDS011;13829;48.990;8.346;2023-04-06T07:45:57;8.80;;;7.00;;
5054;SDS011;13829;48.990;8.346;2023-04-06T07:48:25;8.27;;;7.30;;
5054;SDS011;13829;48.990;8.346;2023-04-06T07:50:54;8.90;;;6.80;;
5054;SDS011;13829;48.990;8.346;2023-04-06T07:53:28;7.63;;;6.63;;
5054;SDS011;13829;48.990;8.346;2023-04-06T07:55:55;9.73;;;7.40;;
5054;SDS011;13829;48.990;8.346;2023-04-06T07:58:23;7.53;;;6.80;;
5054;SDS011;13829;48.990;8.346;2023-04-06T08:00:51;7.30;;;6.60;;
5054;SDS011;13829;48.990;8.346;2023-04-06T08:03:19;9.43;;;6.97;;
5054;SDS011;13829;48.990;8.346;2023-04-06T08:05:50;9.73;;;7.80;;
5054;SDS011;13829;48.990;8.346;2023-04-06T08:08:18;7.30;;;6.53;;
5054;SDS011;13829;48.990;8.346;2023-04-06T08:10:46;8.43;;;7.53;;
5054;SDS011;13829;48.990;8.346;2023-04-06T08:13:14;9.83;;;7.00;;
5054;SDS011;13829;48.990;8.346;2023-04-06T08:15:42;7.80;;;7.00;;
5054;SDS011;13829;48.990;8.346;2023-04-06T08:18:10;10.13;;;7.00;;
5054;SDS011;13829;48.990;8.346;2023-04-06T08:20:38;9.80;;;7.30;;
5054;SDS011;13829;48.990;8.346;2023-04-06T08:23:05;8.40;;;7.47;;
5054;SDS011;13829;48.990;8.346;2023-04-06T08:25:34;7.30;;;6.60;;
5054;SDS011;13829;48.990;8.346;2023-04-06T08:28:02;10.83;;;7.10;;
5054;SDS011;13829;48.990;8.346;2023-04-06T08:30:30;8.73;;;7.07;;
5054;SDS011;13829;48.990;8.346;2023-04-06T08:32:58;9.33;;;8.10;;
5054;SDS011;13829;48.990;8.346;2023-04-06T08:35:25;8.13;;;6.80;;
5054;SDS011;13829;48.990;8.346;2023-04-06T08:37:53;8.43;;;7.40;;
5054;SDS011;13829;48.990;8.346;2023-04-06T08:40:20;7.73;;;6.90;;
5054;SDS011;13829;48.990;8.346;2023-04-06T08:42:49;9.20;;;6.63;;
5054;SDS011;13829;48.990;8.346;2023-04-06T08:45:20;9.97;;;6.93;;
5054;SDS011;13829;48.990;8.346;2023-04-06T08:47:48;9.43;;;6.70;;
5054;SDS011;13829;48.990;8.346;2023-04-06T08:50:18;10.00;;;7.73;;
5054;SDS011;13829;48.990;8.346;2023-04-06T08:52:47;9.07;;;7.27;;
5054;SDS011;13829;48.990;8.346;2023-04-06T08:55:15;10.10;;;7.63;;
5054;SDS011;13829;48.990;8.346;2023-04-06T08:57:42;8.93;;;8.00;;
5054;SDS011;13829;48.990;8.346;2023-04-06T09:00:12;8.97;;;7.60;;
5054;SDS011;13829;48.990;8.346;2023-04-06T09:02:42;10.60;;;7.40;;
5054;SDS011;13829;48.990;8.346;2023-04-06T09:05:12;9.17;;;7.73;;
5054;SDS011;13829;48.990;8.346;2023-04-06T09:07:41;10.97;;;8.00;;
5054;SDS011;13829;48.990;8.346;2023-04-06T09:10:08;9.47;;;7.87;;
5054;SDS011;13829;48.990;8.346;2023-04-06T09:12:35;10.80;;;8.17;;
5054;SDS011;13829;48.990;8.346;2023-04-06T09:15:03;10.03;;;7.93;;
5054;SDS011;13829;48.990;8.346;2023-04-06T09:17:31;9.67;;;7.30;;
5054;SDS011;13829;48.990;8.346;2023-04-06T09:19:59;9.77;;;8.03;;
5054;SDS011;13829;48.990;8.346;2023-04-06T09:22:34;8.30;;;7.27;;
5054;SDS011;13829;48.990;8.346;2023-04-06T09:25:05;10.53;;;7.87;;
5054;SDS011;13829;48.990;8.346;2023-04-06T09:27:35;11.03;;;8.00;;
5054;SDS011;13829;48.990;8.346;2023-04-06T09:30:04;9.20;;;8.30;;
5054;SDS011;13829;48.990;8.346;2023-04-06T09:32:44;11.20;;;8.33;;
5054;SDS011;13829;48.990;8.346;2023-04-06T09:35:13;9.67;;;8.37;;
5054;SDS011;13829;48.990;8.346;2023-04-06T09:37:41;12.10;;;8.23;;
5054;SDS011;13829;48.990;8.346;2023-04-06T09:40:11;12.27;;;9.10;;
5054;SDS011;13829;48.990;8.346;2023-04-06T09:42:40;11.40;;;8.30;;
5054;SDS011;13829;48.990;8.346;2023-04-06T09:45:08;9.43;;;8.13;;
5054;SDS011;13829;48.990;8.346;2023-04-06T09:47:36;8.77;;;7.73;;
5054;SDS011;13829;48.990;8.346;2023-04-06T09:50:06;10.77;;;8.87;;
5054;SDS011;13829;48.990;8.346;2023-04-06T09:52:37;8.60;;;7.67;;
5054;SDS011;13829;48.990;8.346;2023-04-06T09:55:15;9.70;;;7.37;;
5054;SDS011;13829;48.990;8.346;2023-04-06T09:57:50;9.63;;;7.97;;
5054;SDS011;13829;48.990;8.346;2023-04-06T10:00:27;11.13;;;8.37;;
5054;SDS011;13829;48.990;8.346;2023-04-06T10:03:00;10.97;;;9.03;;
5054;SDS011;13829;48.990;8.346;2023-04-06T10:05:42;10.60;;;7.83;;
5054;SDS011;13829;48.990;8.346;2023-04-06T10:08:16;11.77;;;8.90;;
5054;SDS011;13829;48.990;8.346;2023-04-06T10:10:48;8.73;;;7.57;;
5054;SDS011;13829;48.990;8.346;2023-04-06T10:13:17;10.70;;;8.27;;
5054;SDS011;13829;48.990;8.346;2023-04-06T10:15:49;10.13;;;7.70;;
5054;SDS011;13829;48.990;8.346;2023-04-06T10:18:18;9.53;;;7.43;;
5054;SDS011;13829;48.990;8.346;2023-04-06T10:20:47;11.70;;;8.77;;
5054;SDS011;13829;48.990;8.346;2023-04-06T10:23:22;11.80;;;8.97;;
5054;SDS011;13829;48.990;8.346;2023-04-06T10:26:00;10.13;;;8.20;;
5054;SDS011;13829;48.990;8.346;2023-04-06T10:28:30;11.47;;;8.17;;
5054;SDS011;13829;48.990;8.346;2023-04-06T10:31:01;10.53;;;7.50;;
5054;SDS011;13829;48.990;8.346;2023-04-06T10:33:31;9.20;;;7.00;;
5054;SDS011;13829;48.990;8.346;2023-04-06T10:36:08;8.93;;;7.40;;
5054;SDS011;13829;48.990;8.346;2023-04-06T10:38:37;9.63;;;6.70;;
5054;SDS011;13829;48.990;8.346;2023-04-06T10:41:08;8.83;;;7.40;;
5054;SDS011;13829;48.990;8.346;2023-04-06T10:43:39;7.93;;;6.70;;
5054;SDS011;13829;48.990;8.346;2023-04-06T10:46:08;8.07;;;6.77;;
5054;SDS011;13829;48.990;8.346;2023-04-06T10:48:37;8.60;;;7.67;;
5054;SDS011;13829;48.990;8.346;2023-04-06T10:51:10;9.23;;;6.80;;
5054;SDS011;13829;48.990;8.346;2023-04-06T10:53:38;8.83;;;6.50;;
5054;SDS011;13829;48.990;8.346;2023-04-06T10:56:10;6.97;;;6.00;;
5054;SDS011;13829;48.990;8.346;2023-04-06T10:58:44;7.83;;;5.90;;
5054;SDS011;13829;48.990;8.346;2023-04-06T11:01:12;11.97;;;7.23;;
5054;SDS011;13829;48.990;8.346;2023-04-06T11:03:42;8.47;;;6.03;;
5054;SDS011;13829;48.990;8.346;2023-04-06T11:06:11;7.97;;;6.00;;
5054;SDS011;13829;48.990;8.346;2023-04-06T11:08:45;8.97;;;7.53;;
5054;SDS011;13829;48.990;8.346;2023-04-06T11:11:15;15.70;;;7.47;;
5054;SDS011;13829;48.990;8.346;2023-04-06T11:13:45;7.43;;;6.60;;
5054;SDS011;13829;48.990;8.346;2023-04-06T11:16:15;9.60;;;7.43;;
5054;SDS011;13829;48.990;8.346;2023-04-06T11:18:51;8.17;;;6.67;;
5054;SDS011;13829;48.990;8.346;2023-04-06T11:21:31;8.00;;;7.10;;
5054;SDS011;13829;48.990;8.346;2023-04-06T11:24:08;9.10;;;7.10;;
5054;SDS011;13829;48.990;8.346;2023-04-06T11:26:39;8.83;;;7.00;;
5054;SDS011;13829;48.990;8.346;2023-04-06T11:29:09;9.60;;;7.23;;
5054;SDS011;13829;48.990;8.346;2023-04-06T11:31:41;9.33;;;6.87;;
5054;SDS011;13829;48.990;8.346;2023-04-06T11:34:12;7.57;;;6.40;;
5054;SDS011;13829;48.990;8.346;2023-04-06T11:36:43;9.10;;;6.00;;
5054;SDS011;13829;48.990;8.346;2023-04-06T11:39:11;9.13;;;6.90;;
5054;SDS011;13829;48.990;8.346;2023-04-06T11:41:42;6.93;;;5.83;;
5054;SDS011;13829;48.990;8.346;2023-04-06T11:44:14;9.53;;;6.77;;
5054;SDS011;13829;48.990;8.346;2023-04-06T11:46:50;8.57;;;6.73;;
5054;SDS011;13829;48.990;8.346;2023-04-06T11:49:19;7.50;;;6.43;;
5054;SDS011;13829;48.990;8.346;2023-04-06T11:51:46;9.63;;;6.57;;
5054;SDS011;13829;48.990;8.346;2023-04-06T11:54:13;8.00;;;6.60;;
5054;SDS011;13829;48.990;8.346;2023-04-06T11:56:45;8.70;;;6.70;;
5054;SDS011;13829;48.990;8.346;2023-04-06T11:59:13;8.57;;;6.73;;
5054;SDS011;13829;48.990;8.346;2023-04-06T12:01:44;7.50;;;6.40;;
5054;SDS011;13829;48.990;8.346;2023-04-06T12:04:12;8.10;;;6.57;;
5054;SDS011;13829;48.990;8.346;2023-04-06T12:06:39;8.70;;;6.40;;
5054;SDS011;13829;48.990;8.346;2023-04-06T12:09:07;7.53;;;6.03;;
5054;SDS011;13829;48.990;8.346;2023-04-06T12:11:34;10.50;;;6.83;;
5054;SDS011;13829;48.990;8.346;2023-04-06T12:14:03;6.90;;;5.80;;
5054;SDS011;13829;48.990;8.346;2023-04-06T12:16:32;8.47;;;6.43;;
5054;SDS011;13829;48.990;8.346;2023-04-06T12:18:59;11.90;;;7.33;;
5054;SDS011;13829;48.990;8.346;2023-04-06T12:21:26;7.50;;;6.60;;
5054;SDS011;13829;48.990;8.346;2023-04-06T12:23:55;8.67;;;6.53;;
5054;SDS011;13829;48.990;8.346;2023-04-06T12:26:23;7.13;;;6.13;;
5054;SDS011;13829;48.990;8.346;2023-04-06T12:28:50;7.13;;;6.20;;
5054;SDS011;13829;48.990;8.346;2023-04-06T12:31:19;7.23;;;6.00;;
5054;SDS011;13829;48.990;8.346;2023-04-06T12:33:48;7.60;;;6.00;;
5054;SDS011;13829;48.990;8.346;2023-04-06T12:36:17;8.63;;;6.40;;
5054;SDS011;13829;48.990;8.346;2023-04-06T12:38:46;7.27;;;6.27;;
5054;SDS011;13829;48.990;8.346;2023-04-06T12:41:15;8.97;;;6.07;;
5054;SDS011;13829;48.990;8.346;2023-04-06T12:43:44;7.37;;;6.50;;
5054;SDS011;13829;48.990;8.346;2023-04-06T12:46:12;7.53;;;5.77;;
5054;SDS011;13829;48.990;8.346;2023-04-06T12:48:41;8.27;;;6.43;;
5054;SDS011;13829;48.990;8.346;2023-04-06T12:51:08;10.23;;;6.90;;
5054;SDS011;13829;48.990;8.346;2023-04-06T12:53:35;9.13;;;6.60;;
5054;SDS011;13829;48.990;8.346;2023-04-06T12:56:09;7.83;;;6.23;;
5054;SDS011;13829;48.990;8.346;2023-04-06T12:58:40;7.30;;;5.67;;
5054;SDS011;13829;48.990;8.346;2023-04-06T13:01:08;6.97;;;5.97;;
5054;SDS011;13829;48.990;8.346;2023-04-06T13:03:36;6.80;;;5.83;;
5054;SDS011;13829;48.990;8.346;2023-04-06T13:06:05;7.37;;;5.60;;
5054;SDS011;13829;48.990;8.346;2023-04-06T13:08:33;6.23;;;5.03;;
5054;SDS011;13829;48.990;8.346;2023-04-06T13:11:02;7.43;;;5.80;;
5054;SDS011;13829;48.990;8.346;2023-04-06T13:13:33;7.43;;;5.80;;
5054;SDS011;13829;48.990;8.346;2023-04-06T13:16:01;7.30;;;5.90;;
5054;SDS011;13829;48.990;8.346;2023-04-06T13:18:32;7.27;;;5.83;;
5054;SDS011;13829;48.990;8.346;2023-04-06T13:21:01;7.47;;;5.40;;
5054;SDS011;13829;48.990;8.346;2023-04-06T13:23:30;6.77;;;4.87;;
5054;SDS011;13829;48.990;8.346;2023-04-06T13:25:58;6.53;;;5.70;;
5054;SDS011;13829;48.990;8.346;2023-04-06T13:28:26;7.10;;;6.03;;
5054;SDS011;13829;48.990;8.346;2023-04-06T13:30:54;6.73;;;5.00;;
5054;SDS011;13829;48.990;8.346;2023-04-06T13:33:22;5.70;;;4.80;;
5054;SDS011;13829;48.990;8.346;2023-04-06T13:35:50;6.37;;;5.17;;
5054;SDS011;13829;48.990;8.346;2023-04-06T13:38:17;6.33;;;5.40;;
5054;SDS011;13829;48.990;8.346;2023-04-06T13:40:45;6.27;;;5.60;;
5054;SDS011;13829;48.990;8.346;2023-04-06T13:43:13;5.33;;;4.60;;
5054;SDS011;13829;48.990;8.346;2023-04-06T13:45:40;7.20;;;4.70;;
5054;SDS011;13829;48.990;8.346;2023-04-06T13:48:07;8.03;;;5.83;;
5054;SDS011;13829;48.990;8.346;2023-04-06T13:50:34;7.73;;;5.63;;
5054;SDS011;13829;48.990;8.346;2023-04-06T13:53:01;8.13;;;5.77;;
5054;SDS011;13829;48.990;8.346;2023-04-06T13:55:28;7.17;;;5.20;;
5054;SDS011;13829;48.990;8.346;2023-04-06T13:57:57;5.67;;;4.80;;
5054;SDS011;13829;48.990;8.346;2023-04-06T14:00:24;6.67;;;4.90;;
5054;SDS011;13829;48.990;8.346;2023-04-06T14:02:53;7.80;;;5.47;;
5054;SDS011;13829;48.990;8.346;2023-04-06T14:05:20;7.03;;;6.00;;
5054;SDS011;13829;48.990;8.346;2023-04-06T14:07:48;8.50;;;6.40;;
5054;SDS011;13829;48.990;8.346;2023-04-06T14:10:15;6.73;;;5.67;;
5054;SDS011;13829;48.990;8.346;2023-04-06T14:12:42;8.70;;;6.30;;
5054;SDS011;13829;48.990;8.346;2023-04-06T14:15:14;6.87;;;5.70;;
5054;SDS011;13829;48.990;8.346;2023-04-06T14:17:41;8.73;;;5.80;;
5054;SDS011;13829;48.990;8.346;2023-04-06T14:20:08;7.57;;;5.57;;
5054;SDS011;13829;48.990;8.346;2023-04-06T14:22:39;8.37;;;5.67;;
5054;SDS011;13829;48.990;8.346;2023-04-06T14:25:07;9.27;;;6.53;;
5054;SDS011;13829;48.990;8.346;2023-04-06T14:27:36;9.03;;;6.57;;
5054;SDS011;13829;48.990;8.346;2023-04-06T14:30:03;13.13;;;7.87;;
5054;SDS011;13829;48.990;8.346;2023-04-06T14:32:33;10.30;;;7.87;;
5054;SDS011;13829;48.990;8.346;2023-04-06T14:35:01;12.03;;;7.43;;
5054;SDS011;13829;48.990;8.346;2023-04-06T14:37:28;14.40;;;7.57;;
5054;SDS011;13829;48.990;8.346;2023-04-06T14:39:55;13.17;;;8.23;;
5054;SDS011;13829;48.990;8.346;2023-04-06T14:42:22;11.83;;;7.67;;
5054;SDS011;13829;48.990;8.346;2023-04-06T14:44:49;12.57;;;7.30;;
5054;SDS011;13829;48.990;8.346;2023-04-06T14:47:18;10.27;;;6.90;;
5054;SDS011;13829;48.990;8.346;2023-04-06T14:49:48;12.40;;;6.97;;
5054;SDS011;13829;48.990;8.346;2023-04-06T14:52:18;13.43;;;7.70;;
5054;SDS011;13829;48.990;8.346;2023-04-06T14:54:45;9.57;;;6.83;;
5054;SDS011;13829;48.990;8.346;2023-04-06T14:57:12;12.23;;;6.67;;
5054;SDS011;13829;48.990;8.346;2023-04-06T14:59:39;12.47;;;7.03;;
5054;SDS011;13829;48.990;8.346;2023-04-06T15:02:06;12.90;;;7.67;;
5054;SDS011;13829;48.990;8.346;2023-04-06T15:04:33;10.93;;;7.47;;
5054;SDS011;13829;48.990;8.346;2023-04-06T15:07:02;10.43;;;7.60;;